createdAt,value
2019-04-03T00:02:15.530Z,57.20
2019-04-03T00:04:53.804Z,56.80
2019-04-03T00:07:28.862Z,57.10
2019-04-03T00:10:08.342Z,57.00
2019-04-03T00:12:43.522Z,57.00
2019-04-03T00:15:18.695Z,57.10
2019-04-03T00:17:55.827Z,57.20
2019-04-03T00:20:40.061Z,57.20
2019-04-03T00:23:15.218Z,57.30
2019-04-03T00:25:51.991Z,57.10
2019-04-03T00:28:27.078Z,57.30
2019-04-03T00:31:02.159Z,57.60
2019-04-03T00:33:37.500Z,58.20
2019-04-03T00:36:12.627Z,57.60
2019-04-03T00:38:47.939Z,57.80
2019-04-03T00:41:24.782Z,57.80
2019-04-03T00:43:59.767Z,58.00
2019-04-03T00:46:35.246Z,58.20
2019-04-03T00:49:10.456Z,58.00
2019-04-03T00:51:45.776Z,58.30
2019-04-03T00:54:20.880Z,58.50
2019-04-03T00:56:56.500Z,58.60
2019-04-03T00:59:32.185Z,58.70
2019-04-03T01:02:08.633Z,58.80
2019-04-03T01:04:44.293Z,59.10
2019-04-03T01:07:22.958Z,59.00
2019-04-03T01:09:59.483Z,59.30
2019-04-03T01:12:35.124Z,59.30
2019-04-03T01:15:10.539Z,59.40
2019-04-03T01:17:45.969Z,59.90
2019-04-03T01:20:21.231Z,59.60
2019-04-03T01:22:57.065Z,60.00
2019-04-03T01:25:32.203Z,59.90
2019-04-03T01:28:07.711Z,60.40
2019-04-03T01:30:44.239Z,61.80
2019-04-03T01:33:20.188Z,61.90
2019-04-03T01:35:55.667Z,62.30
2019-04-03T01:38:31.102Z,62.70
2019-04-03T01:41:06.167Z,63.60
2019-04-03T01:43:41.220Z,63.90
2019-04-03T01:46:17.223Z,63.00
2019-04-03T01:48:52.393Z,64.70
2019-04-03T01:51:29.919Z,64.20
2019-04-03T01:54:06.525Z,64.00
2019-04-03T01:56:41.546Z,63.70
2019-04-03T01:59:17.843Z,64.10
2019-04-03T02:01:53.180Z,64.30
2019-04-03T02:04:28.771Z,65.20
2019-04-03T02:07:03.823Z,65.20
2019-04-03T02:09:39.217Z,64.80
2019-04-03T02:12:14.303Z,64.90
2019-04-03T02:14:50.952Z,65.00
2019-04-03T02:17:26.247Z,65.60
2019-04-03T02:20:01.617Z,65.50
2019-04-03T02:22:36.955Z,65.80
2019-04-03T02:25:12.039Z,65.90
2019-04-03T02:27:47.370Z,65.80
2019-04-03T02:30:23.715Z,65.70
2019-04-03T02:32:58.962Z,65.70
2019-04-03T02:35:34.075Z,65.70
2019-04-03T02:38:09.146Z,65.40
2019-04-03T02:40:44.175Z,65.50
2019-04-03T02:43:19.834Z,65.00
2019-04-03T02:45:56.330Z,65.60
2019-04-03T02:48:32.948Z,66.10
2019-04-03T02:51:08.700Z,66.00
2019-04-03T02:53:44.930Z,65.70
2019-04-03T02:56:20.067Z,65.80
2019-04-03T02:58:55.689Z,66.00
2019-04-03T03:01:30.988Z,66.00
2019-04-03T03:04:06.263Z,65.60
2019-04-03T03:06:41.755Z,65.70
2019-04-03T03:09:17.366Z,65.50
2019-04-03T03:11:55.483Z,65.70
2019-04-03T03:14:30.740Z,66.60
2019-04-03T03:17:06.493Z,65.80
2019-04-03T03:19:42.571Z,65.80
2019-04-03T03:22:18.950Z,65.90
2019-04-03T03:24:55.521Z,66.00
2019-04-03T03:27:32.044Z,66.40
2019-04-03T03:30:34.723Z,66.40
2019-04-03T03:32:48.685Z,66.30
2019-04-03T03:35:30.632Z,67.00
2019-04-03T03:38:01.140Z,67.00
2019-04-03T03:40:37.407Z,67.30
2019-04-03T03:43:13.624Z,67.30
2019-04-03T03:45:52.513Z,67.70
2019-04-03T03:48:27.747Z,67.70
2019-04-03T03:51:04.727Z,68.20
2019-04-03T03:53:44.568Z,68.30
2019-04-03T03:56:21.534Z,68.80
2019-04-03T03:58:57.106Z,68.70
2019-04-03T04:01:33.332Z,68.80
2019-04-03T04:06:43.769Z,69.00
2019-04-03T04:09:20.085Z,69.10
2019-04-03T04:11:55.526Z,68.70
2019-04-03T04:17:09.862Z,68.80
2019-04-03T04:19:46.394Z,68.70
2019-04-03T04:22:26.128Z,68.80
2019-04-03T04:25:02.479Z,68.50
2019-04-03T04:30:19.633Z,68.40
2019-04-03T04:32:55.824Z,67.70
2019-04-03T04:35:31.202Z,67.90
2019-04-03T04:38:06.757Z,67.80
2019-04-03T04:40:41.795Z,67.80
2019-04-03T04:43:17.148Z,68.00
2019-04-03T04:45:52.185Z,67.80
2019-04-03T04:48:27.224Z,68.00
2019-04-03T04:51:02.256Z,67.90
2019-04-03T04:53:38.063Z,67.90
2019-04-03T04:56:13.549Z,67.90
2019-04-03T04:58:48.634Z,68.50
2019-04-03T05:01:24.248Z,68.70
2019-04-03T05:03:59.409Z,68.70
2019-04-03T05:06:35.450Z,68.70
2019-04-03T05:09:10.540Z,68.50
2019-04-03T05:11:46.480Z,68.60
2019-04-03T05:16:59.351Z,69.50
2019-04-03T05:19:36.629Z,68.70
2019-04-03T05:22:11.744Z,68.60
2019-04-03T05:24:47.330Z,68.50
2019-04-03T05:27:23.593Z,68.30
2019-04-03T05:29:58.686Z,68.20
2019-04-03T05:32:34.150Z,68.00
2019-04-03T05:35:09.548Z,68.00
2019-04-03T05:37:45.089Z,68.00
2019-04-03T05:40:20.404Z,68.10
2019-04-03T05:42:57.798Z,67.50
2019-04-03T05:45:36.080Z,67.40
2019-04-03T05:48:13.415Z,67.30
2019-04-03T05:50:49.783Z,67.40
2019-04-03T05:53:25.634Z,67.00
2019-04-03T05:56:01.070Z,66.90
2019-04-03T05:58:36.090Z,67.00
2019-04-03T06:01:12.288Z,67.00
2019-04-03T06:03:48.294Z,66.90
2019-04-03T06:08:58.227Z,66.70
2019-04-03T06:11:33.331Z,66.10
2019-04-03T06:14:09.031Z,65.90
2019-04-03T06:16:45.127Z,65.60
2019-04-03T06:19:20.447Z,65.40
2019-04-03T06:21:56.895Z,65.10
2019-04-03T06:24:32.005Z,65.10
2019-04-03T06:27:09.175Z,65.10
2019-04-03T06:29:43.814Z,64.50
2019-04-03T06:32:18.879Z,64.20
2019-04-03T06:34:54.270Z,64.00
2019-04-03T06:40:07.831Z,62.20
2019-04-03T06:42:44.920Z,61.80
2019-04-03T06:45:20.076Z,61.20
2019-04-03T06:47:55.176Z,61.10
2019-04-03T06:50:30.270Z,61.00
2019-04-03T06:53:05.574Z,59.30
2019-04-03T06:55:40.625Z,57.90
2019-04-03T06:58:16.589Z,55.60
2019-04-03T07:00:54.354Z,53.80
2019-04-03T07:03:29.393Z,52.40
2019-04-03T07:06:05.755Z,51.70
2019-04-03T07:11:23.808Z,50.60
2019-04-03T07:16:29.862Z,50.90
2019-04-03T07:19:07.469Z,49.60
2019-04-03T07:21:43.685Z,49.60
2019-04-03T07:24:18.740Z,48.40
2019-04-03T07:26:53.917Z,47.70
2019-04-03T07:29:30.983Z,46.40
2019-04-03T07:32:08.397Z,46.20
2019-04-03T07:34:44.483Z,45.30
2019-04-03T07:37:21.480Z,44.40
2019-04-03T07:39:58.951Z,43.40
2019-04-03T07:42:35.861Z,42.00
2019-04-03T07:45:12.373Z,41.20
2019-04-03T07:47:47.952Z,41.30
2019-04-03T07:50:23.386Z,39.70
2019-04-03T07:52:58.674Z,40.10
2019-04-03T07:55:37.069Z,40.70
2019-04-03T07:58:14.700Z,40.60
2019-04-03T08:00:50.923Z,38.90
2019-04-03T08:03:26.014Z,38.10
2019-04-03T08:06:03.535Z,37.50
2019-04-03T08:08:41.710Z,37.00
2019-04-03T08:11:17.266Z,36.30
2019-04-03T08:13:56.198Z,35.90
2019-04-03T08:16:31.541Z,35.20
2019-04-03T08:19:08.361Z,34.80
2019-04-03T08:21:44.352Z,35.20
2019-04-03T08:24:21.558Z,35.30
2019-04-03T08:26:56.787Z,35.50
2019-04-03T08:29:34.723Z,35.00
2019-04-03T08:32:15.359Z,34.20
2019-04-03T08:34:50.018Z,33.90
2019-04-03T08:37:30.780Z,33.20
2019-04-03T08:40:06.356Z,32.80
2019-04-03T08:42:43.724Z,32.30
2019-04-03T08:45:21.652Z,32.00
2019-04-03T08:47:56.506Z,31.80
2019-04-03T08:50:31.764Z,32.50
2019-04-03T08:53:08.342Z,32.60
2019-04-03T08:55:44.004Z,32.40
2019-04-03T08:58:23.619Z,32.40
2019-04-03T09:01:04.827Z,32.50
2019-04-03T09:03:39.913Z,31.90
2019-04-03T09:06:15.864Z,31.30
2019-04-03T09:08:57.838Z,31.60
2019-04-03T09:11:36.281Z,31.70
2019-04-03T09:14:19.235Z,32.50
2019-04-03T09:16:58.081Z,32.80
2019-04-03T09:19:43.294Z,32.30
2019-04-03T09:22:21.605Z,31.90
2019-04-03T09:24:59.914Z,31.40
2019-04-03T09:27:34.761Z,30.40
2019-04-03T09:30:13.776Z,29.60
2019-04-03T09:32:50.228Z,30.00
2019-04-03T09:35:33.215Z,29.40
2019-04-03T09:38:14.727Z,29.80
2019-04-03T09:43:48.985Z,30.60
2019-04-03T09:46:25.730Z,29.80
2019-04-03T09:49:00.876Z,29.10
2019-04-03T09:51:37.057Z,28.40
2019-04-03T09:54:17.454Z,27.30
2019-04-03T09:57:04.112Z,26.70
2019-04-03T09:59:37.743Z,25.30
2019-04-03T10:02:14.039Z,25.20
2019-04-03T10:05:03.119Z,24.70
2019-04-03T10:07:57.542Z,24.10
2019-04-03T10:10:37.168Z,24.10
2019-04-03T10:13:14.493Z,24.10
2019-04-03T10:15:55.425Z,23.60
2019-04-03T10:21:47.502Z,22.70
2019-04-03T10:24:30.427Z,22.30
2019-04-03T10:27:06.015Z,22.60
2019-04-03T10:29:42.265Z,22.20
2019-04-03T10:32:18.352Z,22.50
2019-04-03T10:34:57.360Z,22.20
2019-04-03T10:40:46.975Z,22.50
2019-04-03T10:44:00.374Z,22.20
2019-04-03T10:49:50.555Z,23.00
2019-04-03T10:52:51.635Z,23.00
2019-04-03T10:58:22.536Z,23.70
2019-04-03T11:00:59.939Z,24.60
2019-04-03T11:03:36.560Z,25.20
2019-04-03T11:06:19.135Z,25.30
2019-04-03T11:08:55.365Z,25.60
2019-04-03T11:11:39.229Z,26.20
2019-04-03T11:14:25.067Z,25.90
2019-04-03T11:17:03.836Z,25.20
2019-04-03T11:19:39.977Z,25.70
2019-04-03T11:25:22.649Z,25.00
2019-04-03T11:28:00.945Z,24.60
2019-04-03T11:30:37.908Z,24.40
2019-04-03T11:33:34.699Z,24.80
2019-04-03T11:39:16.870Z,25.00
2019-04-03T11:41:55.550Z,24.70
2019-04-03T11:44:36.181Z,24.20
2019-04-03T11:47:13.083Z,24.20
2019-04-03T11:49:59.565Z,23.70
2019-04-03T11:55:36.732Z,23.80
2019-04-03T11:58:13.563Z,24.10
2019-04-03T12:00:56.521Z,25.00
2019-04-03T12:04:04.165Z,24.90
2019-04-03T12:06:52.277Z,24.50
2019-04-03T12:09:37.044Z,24.70
2019-04-03T12:15:30.670Z,23.60
2019-04-03T12:18:06.434Z,23.20
2019-04-03T12:20:49.249Z,23.00
2019-04-03T12:23:29.133Z,23.10
2019-04-03T12:26:09.018Z,22.80
2019-04-03T12:28:48.318Z,22.70
2019-04-03T12:37:57.036Z,23.00
2019-04-03T12:40:38.960Z,24.00
2019-04-03T12:43:21.048Z,25.20
2019-04-03T12:45:58.201Z,25.40
2019-04-03T12:48:39.092Z,26.40
2019-04-03T12:54:23.309Z,28.20
2019-04-03T12:57:06.778Z,28.50
2019-04-03T12:59:48.825Z,29.30
2019-04-03T13:02:32.151Z,29.90
2019-04-03T13:05:09.287Z,30.60
2019-04-03T13:07:46.889Z,31.40
2019-04-03T13:10:39.164Z,31.90
2019-04-03T13:13:07.379Z,31.60
2019-04-03T13:15:48.154Z,31.00
2019-04-03T13:18:32.143Z,30.20
2019-04-03T13:21:14.256Z,30.20
2019-04-03T13:23:51.838Z,30.60
2019-04-03T13:26:31.102Z,30.40
2019-04-03T13:29:09.785Z,29.90
2019-04-03T13:31:47.678Z,30.00
2019-04-03T13:34:24.369Z,30.60
2019-04-03T13:37:01.242Z,31.50
2019-04-03T13:39:38.726Z,31.90
2019-04-03T13:42:15.414Z,32.10
2019-04-03T13:44:52.945Z,32.40
2019-04-03T13:47:30.052Z,33.00
2019-04-03T13:50:13.847Z,33.40
2019-04-03T13:52:50.159Z,33.20
2019-04-03T13:55:28.519Z,33.30
2019-04-03T13:58:08.080Z,33.60
2019-04-03T14:00:52.102Z,34.40
2019-04-03T14:03:19.951Z,34.10
2019-04-03T14:05:56.012Z,34.70
2019-04-03T14:08:32.037Z,35.20
2019-04-03T14:11:16.691Z,35.20
2019-04-03T14:13:49.707Z,35.20
2019-04-03T14:16:27.375Z,34.80
2019-04-03T14:19:11.607Z,34.70
2019-04-03T14:21:47.781Z,34.20
2019-04-03T14:24:35.908Z,34.00
2019-04-03T14:27:00.010Z,34.30
2019-04-03T14:29:39.682Z,33.50
2019-04-03T14:32:16.620Z,33.50
2019-04-03T14:35:05.642Z,34.00
2019-04-03T14:37:33.023Z,33.90
2019-04-03T14:40:18.944Z,33.90
2019-04-03T14:42:58.180Z,33.60
2019-04-03T14:45:32.253Z,33.40
2019-04-03T14:48:10.930Z,33.20
2019-04-03T14:50:47.501Z,33.10
2019-04-03T14:53:28.457Z,34.00
2019-04-03T14:56:07.277Z,34.20
2019-04-03T15:01:50.818Z,34.10
2019-04-03T15:04:25.484Z,32.80
2019-04-03T15:07:07.777Z,32.10
2019-04-03T15:09:44.636Z,32.10
2019-04-03T15:12:27.070Z,31.60
2019-04-03T15:15:08.439Z,31.40
2019-04-03T15:17:45.969Z,31.90
2019-04-03T15:20:35.219Z,31.90
2019-04-03T15:23:14.086Z,30.70
2019-04-03T15:26:03.730Z,29.60
2019-04-03T15:28:40.530Z,29.40
2019-04-03T15:31:15.961Z,29.80
2019-04-03T15:33:54.271Z,29.40
2019-04-03T15:36:31.335Z,29.30
2019-04-03T15:39:19.329Z,29.40
2019-04-03T15:42:01.973Z,29.10
2019-04-03T15:44:39.519Z,29.00
2019-04-03T15:47:33.580Z,28.90
2019-04-03T15:49:59.877Z,29.00
2019-04-03T15:58:47.998Z,30.20
2019-04-03T16:01:25.934Z,30.50
2019-04-03T16:04:02.541Z,30.40
2019-04-03T16:06:40.659Z,30.30
2019-04-03T16:09:20.625Z,30.40
2019-04-03T16:11:56.531Z,30.80
2019-04-03T16:14:39.073Z,31.70
2019-04-03T16:17:16.774Z,32.40
2019-04-03T16:19:53.517Z,33.80
2019-04-03T16:22:30.222Z,33.60
2019-04-03T16:25:06.984Z,33.70
2019-04-03T16:27:43.138Z,33.90
2019-04-03T16:30:19.756Z,34.00
2019-04-03T16:33:02.344Z,34.60
2019-04-03T16:35:38.905Z,35.20
2019-04-03T16:38:15.140Z,36.00
2019-04-03T16:40:51.096Z,36.60
2019-04-03T16:43:26.510Z,37.30
2019-04-03T16:46:02.827Z,37.90
2019-04-03T16:48:39.866Z,37.90
2019-04-03T16:51:15.643Z,38.40
2019-04-03T16:53:51.825Z,38.70
2019-04-03T16:56:27.690Z,39.10
2019-04-03T16:59:03.064Z,39.60
2019-04-03T17:01:39.041Z,40.10
2019-04-03T17:04:23.792Z,40.50
2019-04-03T17:06:51.065Z,40.40
2019-04-03T17:09:32.828Z,41.00
2019-04-03T17:12:17.085Z,41.20
2019-04-03T17:15:00.523Z,41.70
2019-04-03T17:17:36.063Z,42.20
2019-04-03T17:20:11.883Z,42.60
2019-04-03T17:22:47.147Z,43.20
2019-04-03T17:25:26.972Z,43.50
2019-04-03T17:28:07.988Z,44.10
2019-04-03T17:30:38.420Z,44.10
2019-04-03T17:33:13.561Z,44.60
2019-04-03T17:35:50.845Z,45.00
2019-04-03T17:38:31.522Z,45.20
2019-04-03T17:41:09.354Z,45.40
2019-04-03T17:43:52.162Z,46.00
2019-04-03T17:46:27.119Z,45.80
2019-04-03T17:49:04.580Z,45.80
2019-04-03T17:51:40.835Z,45.90
2019-04-03T17:54:16.862Z,46.80
2019-04-03T17:56:53.007Z,47.00
2019-04-03T17:59:29.841Z,46.90
2019-04-03T18:02:05.894Z,47.10
2019-04-03T18:04:41.021Z,47.40
2019-04-03T18:07:18.259Z,46.80
2019-04-03T18:09:53.412Z,46.80
2019-04-03T18:12:28.788Z,47.50
2019-04-03T18:15:08.375Z,47.10
2019-04-03T18:17:43.520Z,47.10
2019-04-03T18:20:19.005Z,48.70
2019-04-03T18:22:54.148Z,47.50
2019-04-03T18:25:30.225Z,47.90
2019-04-03T18:28:06.315Z,48.10
2019-04-03T18:30:43.982Z,47.90
2019-04-03T18:33:19.173Z,47.90
2019-04-03T18:35:56.824Z,48.20
2019-04-03T18:38:33.966Z,48.10
2019-04-03T18:41:10.275Z,48.60
2019-04-03T18:43:46.622Z,48.70
2019-04-03T18:46:31.604Z,48.00
2019-04-03T18:49:01.169Z,48.00
2019-04-03T18:51:36.739Z,48.10
2019-04-03T18:54:12.834Z,48.10
2019-04-03T18:56:50.103Z,48.00
2019-04-03T18:59:27.529Z,48.10
2019-04-03T19:02:03.825Z,48.30
2019-04-03T19:04:42.343Z,48.30
2019-04-03T19:07:20.145Z,48.60
2019-04-03T19:10:06.452Z,48.50
2019-04-03T19:12:35.904Z,48.60
2019-04-03T19:15:11.066Z,48.90
2019-04-03T19:17:59.121Z,48.80
2019-04-03T19:20:24.925Z,49.00
2019-04-03T19:23:02.823Z,49.10
2019-04-03T19:25:38.615Z,49.10
2019-04-03T19:28:14.561Z,49.30
2019-04-03T19:30:50.484Z,49.50
2019-04-03T19:33:28.607Z,49.40
2019-04-03T19:36:04.145Z,50.20
2019-04-03T19:38:40.838Z,49.90
2019-04-03T19:41:17.188Z,49.90
2019-04-03T19:43:52.650Z,50.00
2019-04-03T19:46:27.806Z,50.00
2019-04-03T19:49:04.168Z,49.90
2019-04-03T19:51:40.272Z,50.00
2019-04-03T19:54:16.847Z,50.20
2019-04-03T19:56:52.785Z,49.90
2019-04-03T19:59:31.008Z,50.40
2019-04-03T20:02:05.925Z,50.40
2019-04-03T20:04:41.945Z,50.50
2019-04-03T20:07:17.187Z,50.90
2019-04-03T20:09:52.428Z,50.90
2019-04-03T20:12:27.618Z,51.20
2019-04-03T20:15:03.183Z,51.20
2019-04-03T20:17:38.649Z,51.50
2019-04-03T20:20:15.039Z,51.70
2019-04-03T20:22:51.543Z,51.90
2019-04-03T20:25:27.023Z,51.90
2019-04-03T20:28:02.163Z,52.30
2019-04-03T20:30:37.631Z,52.50
2019-04-03T20:33:12.731Z,52.50
2019-04-03T20:35:49.376Z,52.50
2019-04-03T20:38:27.152Z,52.60
2019-04-03T20:41:03.881Z,52.30
2019-04-03T20:43:42.557Z,52.40
2019-04-03T20:46:16.167Z,52.20
2019-04-03T20:48:51.533Z,52.60
2019-04-03T20:51:26.885Z,52.50
2019-04-03T20:54:02.234Z,52.70
2019-04-03T20:56:42.890Z,52.70
2019-04-03T20:59:18.000Z,52.70
2019-04-03T21:01:55.038Z,52.70
2019-04-03T21:04:30.310Z,52.80
2019-04-03T21:07:05.350Z,52.80
2019-04-03T21:09:40.393Z,52.80
2019-04-03T21:12:15.779Z,52.80
2019-04-03T21:14:51.863Z,52.90
2019-04-03T21:17:26.883Z,53.00
2019-04-03T21:20:02.866Z,52.90
2019-04-03T21:22:37.965Z,53.00
2019-04-03T21:25:13.565Z,53.00
2019-04-03T21:27:49.315Z,53.40
2019-04-03T21:30:25.768Z,53.20
2019-04-03T21:33:01.069Z,53.40
2019-04-03T21:35:36.106Z,53.40
2019-04-03T21:38:11.473Z,53.50
2019-04-03T21:40:47.565Z,53.40
2019-04-03T21:43:23.951Z,53.50
2019-04-03T21:46:00.309Z,53.50
2019-04-03T21:48:35.441Z,53.70
2019-04-03T21:51:11.469Z,53.60
2019-04-03T21:53:46.537Z,53.90
2019-04-03T21:56:25.125Z,54.10
2019-04-03T21:59:00.141Z,54.30
2019-04-03T22:01:40.152Z,54.40
2019-04-03T22:04:15.191Z,54.80
2019-04-03T22:06:50.241Z,54.90
2019-04-03T22:09:32.597Z,54.90
2019-04-03T22:12:07.957Z,55.10
2019-04-03T22:14:43.471Z,55.30
2019-04-03T22:17:22.026Z,55.40
2019-04-03T22:19:58.608Z,55.80
2019-04-03T22:22:34.704Z,56.20
2019-04-03T22:25:10.379Z,56.20
2019-04-03T22:27:48.303Z,56.20
2019-04-03T22:30:24.327Z,56.30
2019-04-03T22:32:59.446Z,56.50
2019-04-03T22:35:34.486Z,56.60
2019-04-03T22:38:09.801Z,56.70
2019-04-03T22:40:44.839Z,57.00
2019-04-03T22:43:20.148Z,57.10
2019-04-03T22:45:56.077Z,56.70
2019-04-03T22:48:31.113Z,56.40
2019-04-03T22:51:06.983Z,55.80
2019-04-03T22:53:44.486Z,56.30
2019-04-03T22:56:19.889Z,55.30
2019-04-03T22:58:55.264Z,55.10
2019-04-03T23:01:32.701Z,55.00
2019-04-03T23:04:08.952Z,55.00
2019-04-03T23:06:44.237Z,55.00
2019-04-03T23:09:19.321Z,55.40
2019-04-03T23:11:54.643Z,55.30
2019-04-03T23:14:29.673Z,55.60
2019-04-03T23:17:04.730Z,55.60
2019-04-03T23:19:40.730Z,55.80
2019-04-03T23:22:17.006Z,55.70
2019-04-03T23:24:52.037Z,55.70
2019-04-03T23:27:32.624Z,55.70
2019-04-03T23:30:10.061Z,55.50
2019-04-03T23:32:46.459Z,55.50
2019-04-03T23:35:21.744Z,55.40
2019-04-03T23:37:56.770Z,55.30
2019-04-03T23:40:34.452Z,55.20
2019-04-03T23:43:09.392Z,55.10
2019-04-03T23:45:44.600Z,55.20
2019-04-03T23:48:19.637Z,55.00
2019-04-03T23:50:55.628Z,55.70
2019-04-03T23:53:32.626Z,55.10
2019-04-03T23:56:07.952Z,55.20
2019-04-03T23:58:43.111Z,55.20
